sensor_id;sensor_type;location;lat;lon;timestamp;P1;P2;P0
57411;PMS5003;43247;52.828;-8.980;2023-06-14T00:00:35;26;22;
57411;PMS5003;43247;52.828;-8.980;2023-06-14T00:01:36;32;30;
57411;PMS5003;43247;52.828;-8.980;2023-06-14T00:02:37;27;27;
57411;PMS5003;43247;52.828;-8.980;2023-06-14T00:03:37;30;29;
57411;PMS5003;43247;52.828;-8.980;2023-06-14T00:04:38;28;28;
57411;PMS5003;43247;52.828;-8.980;2023-06-14T00:05:38;33;33;
57411;PMS5003;43247;52.828;-8.980;2023-06-14T00:06:39;23;23;
57411;PMS5003;43247;52.828;-8.980;2023-06-14T00:07:40;25;25;
57411;PMS5003;43247;52.828;-8.980;2023-06-14T00:08:40;30;29;
57411;PMS5003;43247;52.828;-8.980;2023-06-14T00:09:40;27;27;
57411;PMS5003;43247;52.828;-8.980;2023-06-14T00:10:41;28;27;
57411;PMS5003;43247;52.828;-8.980;2023-06-14T00:11:41;26;26;
57411;PMS5003;43247;52.828;-8.980;2023-06-14T00:12:42;29;27;
57411;PMS5003;43247;52.828;-8.980;2023-06-14T00:13:43;27;26;
57411;PMS5003;43247;52.828;-8.980;2023-06-14T00:14:43;28;27;
57411;PMS5003;43247;52.828;-8.980;2023-06-14T00:15:45;27;26;
57411;PMS5003;43247;52.828;-8.980;2023-06-14T00:16:44;29;29;
57411;PMS5003;43247;52.828;-8.980;2023-06-14T00:17:44;29;27;
57411;PMS5003;43247;52.828;-8.980;2023-06-14T00:18:44;30;28;
57411;PMS5003;43247;52.828;-8.980;2023-06-14T00:19:45;26;25;
57411;PMS5003;43247;52.828;-8.980;2023-06-14T00:20:45;28;27;
57411;PMS5003;43247;52.828;-8.980;2023-06-14T00:21:46;31;31;
57411;PMS5003;43247;52.828;-8.980;2023-06-14T00:22:47;26;25;
57411;PMS5003;43247;52.828;-8.980;2023-06-14T00:23:47;32;30;
57411;PMS5003;43247;52.828;-8.980;2023-06-14T00:24:47;24;24;
57411;PMS5003;43247;52.828;-8.980;2023-06-14T00:25:47;29;28;
57411;PMS5003;43247;52.828;-8.980;2023-06-14T00:26:47;29;28;
57411;PMS5003;43247;52.828;-8.980;2023-06-14T00:27:48;29;27;
57411;PMS5003;43247;52.828;-8.980;2023-06-14T00:28:48;24;23;
57411;PMS5003;43247;52.828;-8.980;2023-06-14T00:29:49;29;29;
57411;PMS5003;43247;52.828;-8.980;2023-06-14T00:30:49;29;26;
57411;PMS5003;43247;52.828;-8.980;2023-06-14T00:31:50;27;27;
57411;PMS5003;43247;52.828;-8.980;2023-06-14T00:32:50;25;25;
57411;PMS5003;43247;52.828;-8.980;2023-06-14T00:33:51;28;27;
57411;PMS5003;43247;52.828;-8.980;2023-06-14T00:34:51;27;27;
57411;PMS5003;43247;52.828;-8.980;2023-06-14T00:35:51;27;27;
57411;PMS5003;43247;52.828;-8.980;2023-06-14T00:36:51;27;26;
57411;PMS5003;43247;52.828;-8.980;2023-06-14T00:37:52;28;28;
57411;PMS5003;43247;52.828;-8.980;2023-06-14T00:38:52;31;30;
57411;PMS5003;43247;52.828;-8.980;2023-06-14T00:39:53;27;24;
57411;PMS5003;43247;52.828;-8.980;2023-06-14T00:40:53;25;25;
57411;PMS5003;43247;52.828;-8.980;2023-06-14T00:41:54;29;27;
57411;PMS5003;43247;52.828;-8.980;2023-06-14T00:42:55;28;27;
57411;PMS5003;43247;52.828;-8.980;2023-06-14T00:43:55;27;26;
57411;PMS5003;43247;52.828;-8.980;2023-06-14T00:44:56;28;25;
57411;PMS5003;43247;52.828;-8.980;2023-06-14T00:45:56;29;29;
57411;PMS5003;43247;52.828;-8.980;2023-06-14T00:46:56;24;24;
57411;PMS5003;43247;52.828;-8.980;2023-06-14T00:47:56;29;28;
57411;PMS5003;43247;52.828;-8.980;2023-06-14T00:48:56;24;24;
57411;PMS5003;43247;52.828;-8.980;2023-06-14T00:49:56;26;25;
57411;PMS5003;43247;52.828;-8.980;2023-06-14T00:50:57;28;26;
57411;PMS5003;43247;52.828;-8.980;2023-06-14T00:51:57;23;22;
57411;PMS5003;43247;52.828;-8.980;2023-06-14T00:52:58;28;28;
57411;PMS5003;43247;52.828;-8.980;2023-06-14T00:53:58;27;25;
57411;PMS5003;43247;52.828;-8.980;2023-06-14T00:54:59;28;26;
57411;PMS5003;43247;52.828;-8.980;2023-06-14T00:56:00;28;25;
57411;PMS5003;43247;52.828;-8.980;2023-06-14T00:56:59;29;26;
57411;PMS5003;43247;52.828;-8.980;2023-06-14T00:58:00;27;24;
57411;PMS5003;43247;52.828;-8.980;2023-06-14T00:59:01;31;31;
57411;PMS5003;43247;52.828;-8.980;2023-06-14T01:00:03;25;24;
57411;PMS5003;43247;52.828;-8.980;2023-06-14T01:01:04;29;29;
57411;PMS5003;43247;52.828;-8.980;2023-06-14T01:02:05;27;26;
57411;PMS5003;43247;52.828;-8.980;2023-06-14T01:03:05;26;25;
57411;PMS5003;43247;52.828;-8.980;2023-06-14T01:04:06;28;26;
57411;PMS5003;43247;52.828;-8.980;2023-06-14T01:05:06;27;27;
57411;PMS5003;43247;52.828;-8.980;2023-06-14T01:06:11;29;28;
57411;PMS5003;43247;52.828;-8.980;2023-06-14T01:07:08;27;27;
57411;PMS5003;43247;52.828;-8.980;2023-06-14T01:08:12;29;29;
57411;PMS5003;43247;52.828;-8.980;2023-06-14T01:09:09;29;28;
57411;PMS5003;43247;52.828;-8.980;2023-06-14T01:10:11;31;31;
57411;PMS5003;43247;52.828;-8.980;2023-06-14T01:11:10;26;26;
57411;PMS5003;43247;52.828;-8.980;2023-06-14T01:12:10;32;32;
57411;PMS5003;43247;52.828;-8.980;2023-06-14T01:13:10;31;30;
57411;PMS5003;43247;52.828;-8.980;2023-06-14T01:14:10;29;26;
57411;PMS5003;43247;52.828;-8.980;2023-06-14T01:15:10;29;28;
57411;PMS5003;43247;52.828;-8.980;2023-06-14T01:16:11;29;29;
57411;PMS5003;43247;52.828;-8.980;2023-06-14T01:17:11;28;28;
57411;PMS5003;43247;52.828;-8.980;2023-06-14T01:18:11;27;25;
57411;PMS5003;43247;52.828;-8.980;2023-06-14T01:19:12;26;25;
57411;PMS5003;43247;52.828;-8.980;2023-06-14T01:20:12;24;24;
57411;PMS5003;43247;52.828;-8.980;2023-06-14T01:22:13;28;28;
57411;PMS5003;43247;52.828;-8.980;2023-06-14T01:23:14;24;24;
57411;PMS5003;43247;52.828;-8.980;2023-06-14T01:24:14;26;25;
57411;PMS5003;43247;52.828;-8.980;2023-06-14T01:25:14;30;29;
57411;PMS5003;43247;52.828;-8.980;2023-06-14T01:26:15;26;26;
57411;PMS5003;43247;52.828;-8.980;2023-06-14T01:27:15;26;25;
57411;PMS5003;43247;52.828;-8.980;2023-06-14T01:28:16;28;28;
57411;PMS5003;43247;52.828;-8.980;2023-06-14T01:29:17;27;27;
57411;PMS5003;43247;52.828;-8.980;2023-06-14T01:30:17;28;28;
57411;PMS5003;43247;52.828;-8.980;2023-06-14T01:31:19;29;28;
57411;PMS5003;43247;52.828;-8.980;2023-06-14T01:32:19;25;25;
57411;PMS5003;43247;52.828;-8.980;2023-06-14T01:33:20;32;29;
57411;PMS5003;43247;52.828;-8.980;2023-06-14T01:34:19;23;23;
57411;PMS5003;43247;52.828;-8.980;2023-06-14T01:35:20;27;27;
57411;PMS5003;43247;52.828;-8.980;2023-06-14T01:36:20;26;24;
57411;PMS5003;43247;52.828;-8.980;2023-06-14T01:37:21;26;25;
57411;PMS5003;43247;52.828;-8.980;2023-06-14T01:38:22;29;28;
57411;PMS5003;43247;52.828;-8.980;2023-06-14T01:39:22;29;27;
57411;PMS5003;43247;52.828;-8.980;2023-06-14T01:40:22;26;26;
57411;PMS5003;43247;52.828;-8.980;2023-06-14T01:41:23;28;26;
57411;PMS5003;43247;52.828;-8.980;2023-06-14T01:42:23;28;28;
57411;PMS5003;43247;52.828;-8.980;2023-06-14T01:43:24;34;32;
57411;PMS5003;43247;52.828;-8.980;2023-06-14T01:44:24;33;31;
57411;PMS5003;43247;52.828;-8.980;2023-06-14T01:45:25;28;28;
57411;PMS5003;43247;52.828;-8.980;2023-06-14T01:46:26;29;27;
57411;PMS5003;43247;52.828;-8.980;2023-06-14T01:47:26;25;25;
57411;PMS5003;43247;52.828;-8.980;2023-06-14T01:48:27;27;26;
57411;PMS5003;43247;52.828;-8.980;2023-06-14T01:49:27;29;28;
57411;PMS5003;43247;52.828;-8.980;2023-06-14T01:50:28;24;23;
57411;PMS5003;43247;52.828;-8.980;2023-06-14T01:51:28;23;22;
57411;PMS5003;43247;52.828;-8.980;2023-06-14T01:52:28;27;27;
57411;PMS5003;43247;52.828;-8.980;2023-06-14T01:53:29;29;29;
57411;PMS5003;43247;52.828;-8.980;2023-06-14T01:54:29;22;21;
57411;PMS5003;43247;52.828;-8.980;2023-06-14T01:55:29;31;29;
57411;PMS5003;43247;52.828;-8.980;2023-06-14T01:56:29;26;25;
57411;PMS5003;43247;52.828;-8.980;2023-06-14T01:57:30;27;26;
57411;PMS5003;43247;52.828;-8.980;2023-06-14T01:58:30;30;27;
57411;PMS5003;43247;52.828;-8.980;2023-06-14T01:59:31;28;28;
57411;PMS5003;43247;52.828;-8.980;2023-06-14T02:00:31;27;25;
57411;PMS5003;43247;52.828;-8.980;2023-06-14T02:01:31;26;26;
57411;PMS5003;43247;52.828;-8.980;2023-06-14T02:02:32;23;23;
57411;PMS5003;43247;52.828;-8.980;2023-06-14T02:03:32;25;25;
57411;PMS5003;43247;52.828;-8.980;2023-06-14T02:04:33;30;29;
57411;PMS5003;43247;52.828;-8.980;2023-06-14T02:05:33;26;24;
57411;PMS5003;43247;52.828;-8.980;2023-06-14T02:06:34;28;26;
57411;PMS5003;43247;52.828;-8.980;2023-06-14T02:07:34;30;29;
57411;PMS5003;43247;52.828;-8.980;2023-06-14T02:08:35;34;31;
57411;PMS5003;43247;52.828;-8.980;2023-06-14T02:09:36;26;25;
57411;PMS5003;43247;52.828;-8.980;2023-06-14T02:10:37;29;29;
57411;PMS5003;43247;52.828;-8.980;2023-06-14T02:11:37;26;26;
57411;PMS5003;43247;52.828;-8.980;2023-06-14T02:12:38;27;24;
57411;PMS5003;43247;52.828;-8.980;2023-06-14T02:13:38;23;23;
57411;PMS5003;43247;52.828;-8.980;2023-06-14T02:14:38;25;25;
57411;PMS5003;43247;52.828;-8.980;2023-06-14T02:15:39;26;26;
57411;PMS5003;43247;52.828;-8.980;2023-06-14T02:16:39;23;23;
57411;PMS5003;43247;52.828;-8.980;2023-06-14T02:17:39;23;22;
57411;PMS5003;43247;52.828;-8.980;2023-06-14T02:18:40;24;22;
57411;PMS5003;43247;52.828;-8.980;2023-06-14T02:19:40;23;23;
57411;PMS5003;43247;52.828;-8.980;2023-06-14T02:20:41;23;22;
57411;PMS5003;43247;52.828;-8.980;2023-06-14T02:21:41;23;22;
57411;PMS5003;43247;52.828;-8.980;2023-06-14T02:22:41;24;22;
57411;PMS5003;43247;52.828;-8.980;2023-06-14T02:23:42;20;20;
57411;PMS5003;43247;52.828;-8.980;2023-06-14T02:24:42;20;18;
57411;PMS5003;43247;52.828;-8.980;2023-06-14T02:25:42;22;20;
57411;PMS5003;43247;52.828;-8.980;2023-06-14T02:26:43;18;17;
57411;PMS5003;43247;52.828;-8.980;2023-06-14T02:27:43;19;19;
57411;PMS5003;43247;52.828;-8.980;2023-06-14T02:28:44;18;18;
57411;PMS5003;43247;52.828;-8.980;2023-06-14T02:29:44;21;20;
57411;PMS5003;43247;52.828;-8.980;2023-06-14T02:30:46;18;18;
57411;PMS5003;43247;52.828;-8.980;2023-06-14T02:31:46;20;20;
57411;PMS5003;43247;52.828;-8.980;2023-06-14T02:32:46;21;21;
57411;PMS5003;43247;52.828;-8.980;2023-06-14T02:33:46;17;17;
57411;PMS5003;43247;52.828;-8.980;2023-06-14T02:34:46;17;16;
57411;PMS5003;43247;52.828;-8.980;2023-06-14T02:35:46;22;21;
57411;PMS5003;43247;52.828;-8.980;2023-06-14T02:36:46;21;21;
57411;PMS5003;43247;52.828;-8.980;2023-06-14T02:37:47;19;19;
57411;PMS5003;43247;52.828;-8.980;2023-06-14T02:38:47;22;22;
57411;PMS5003;43247;52.828;-8.980;2023-06-14T02:39:48;20;19;
57411;PMS5003;43247;52.828;-8.980;2023-06-14T02:40:48;19;19;
57411;PMS5003;43247;52.828;-8.980;2023-06-14T02:41:49;21;20;
57411;PMS5003;43247;52.828;-8.980;2023-06-14T02:42:49;20;19;
57411;PMS5003;43247;52.828;-8.980;2023-06-14T02:43:49;16;15;
57411;PMS5003;43247;52.828;-8.980;2023-06-14T02:44:50;19;19;
57411;PMS5003;43247;52.828;-8.980;2023-06-14T02:45:50;19;17;
57411;PMS5003;43247;52.828;-8.980;2023-06-14T02:46:50;23;22;
57411;PMS5003;43247;52.828;-8.980;2023-06-14T02:47:50;16;16;
57411;PMS5003;43247;52.828;-8.980;2023-06-14T02:48:51;19;19;
57411;PMS5003;43247;52.828;-8.980;2023-06-14T02:49:51;20;18;
57411;PMS5003;43247;52.828;-8.980;2023-06-14T02:50:52;20;20;
57411;PMS5003;43247;52.828;-8.980;2023-06-14T02:51:52;18;15;
57411;PMS5003;43247;52.828;-8.980;2023-06-14T02:52:52;20;20;
57411;PMS5003;43247;52.828;-8.980;2023-06-14T02:53:53;17;17;
57411;PMS5003;43247;52.828;-8.980;2023-06-14T02:54:53;18;18;
57411;PMS5003;43247;52.828;-8.980;2023-06-14T02:55:54;18;18;
57411;PMS5003;43247;52.828;-8.980;2023-06-14T02:56:54;20;20;
57411;PMS5003;43247;52.828;-8.980;2023-06-14T02:57:54;17;17;
57411;PMS5003;43247;52.828;-8.980;2023-06-14T02:58:55;23;23;
57411;PMS5003;43247;52.828;-8.980;2023-06-14T02:59:55;19;19;
57411;PMS5003;43247;52.828;-8.980;2023-06-14T03:00:56;19;19;
57411;PMS5003;43247;52.828;-8.980;2023-06-14T03:01:56;17;16;
57411;PMS5003;43247;52.828;-8.980;2023-06-14T03:02:57;21;21;
57411;PMS5003;43247;52.828;-8.980;2023-06-14T03:03:57;18;18;
57411;PMS5003;43247;52.828;-8.980;2023-06-14T03:04:57;20;20;
57411;PMS5003;43247;52.828;-8.980;2023-06-14T03:05:58;20;19;
57411;PMS5003;43247;52.828;-8.980;2023-06-14T03:06:59;20;20;
57411;PMS5003;43247;52.828;-8.980;2023-06-14T03:08:00;18;18;
57411;PMS5003;43247;52.828;-8.980;2023-06-14T03:09:00;15;15;
57411;PMS5003;43247;52.828;-8.980;2023-06-14T03:10:00;24;23;
57411;PMS5003;43247;52.828;-8.980;2023-06-14T03:11:00;21;19;
57411;PMS5003;43247;52.828;-8.980;2023-06-14T03:12:00;17;17;
57411;PMS5003;43247;52.828;-8.980;2023-06-14T03:13:01;21;21;
57411;PMS5003;43247;52.828;-8.980;2023-06-14T03:14:01;19;19;
57411;PMS5003;43247;52.828;-8.980;2023-06-14T03:15:02;21;19;
57411;PMS5003;43247;52.828;-8.980;2023-06-14T03:16:02;18;18;
57411;PMS5003;43247;52.828;-8.980;2023-06-14T03:17:02;22;20;
57411;PMS5003;43247;52.828;-8.980;2023-06-14T03:18:03;23;23;
57411;PMS5003;43247;52.828;-8.980;2023-06-14T03:19:03;20;19;
57411;PMS5003;43247;52.828;-8.980;2023-06-14T03:20:03;19;18;
57411;PMS5003;43247;52.828;-8.980;2023-06-14T03:21:03;18;17;
57411;PMS5003;43247;52.828;-8.980;2023-06-14T03:22:04;19;18;
57411;PMS5003;43247;52.828;-8.980;2023-06-14T03:23:04;23;23;
57411;PMS5003;43247;52.828;-8.980;2023-06-14T03:24:05;18;18;
57411;PMS5003;43247;52.828;-8.980;2023-06-14T03:25:05;15;15;
57411;PMS5003;43247;52.828;-8.980;2023-06-14T03:26:05;16;16;
57411;PMS5003;43247;52.828;-8.980;2023-06-14T03:27:06;18;18;
57411;PMS5003;43247;52.828;-8.980;2023-06-14T03:28:06;18;17;
57411;PMS5003;43247;52.828;-8.980;2023-06-14T03:29:06;18;15;
57411;PMS5003;43247;52.828;-8.980;2023-06-14T03:30:07;20;20;
57411;PMS5003;43247;52.828;-8.980;2023-06-14T03:31:07;18;18;
57411;PMS5003;43247;52.828;-8.980;2023-06-14T03:32:07;17;17;
57411;PMS5003;43247;52.828;-8.980;2023-06-14T03:33:08;18;18;
57411;PMS5003;43247;52.828;-8.980;2023-06-14T03:34:08;19;19;
57411;PMS5003;43247;52.828;-8.980;2023-06-14T03:35:08;17;17;
57411;PMS5003;43247;52.828;-8.980;2023-06-14T03:36:09;18;18;
57411;PMS5003;43247;52.828;-8.980;2023-06-14T03:37:09;20;20;
57411;PMS5003;43247;52.828;-8.980;2023-06-14T03:38:10;19;19;
57411;PMS5003;43247;52.828;-8.980;2023-06-14T03:39:10;17;17;
57411;PMS5003;43247;52.828;-8.980;2023-06-14T03:40:11;17;17;
57411;PMS5003;43247;52.828;-8.980;2023-06-14T03:41:10;16;16;
57411;PMS5003;43247;52.828;-8.980;2023-06-14T03:42:12;21;19;
57411;PMS5003;43247;52.828;-8.980;2023-06-14T03:43:12;18;18;
57411;PMS5003;43247;52.828;-8.980;2023-06-14T03:44:13;16;16;
57411;PMS5003;43247;52.828;-8.980;2023-06-14T03:45:12;19;19;
57411;PMS5003;43247;52.828;-8.980;2023-06-14T03:46:12;18;18;
57411;PMS5003;43247;52.828;-8.980;2023-06-14T03:47:12;17;16;
57411;PMS5003;43247;52.828;-8.980;2023-06-14T03:48:13;19;19;
57411;PMS5003;43247;52.828;-8.980;2023-06-14T03:49:13;15;15;
57411;PMS5003;43247;52.828;-8.980;2023-06-14T03:50:13;16;16;
57411;PMS5003;43247;52.828;-8.980;2023-06-14T03:51:13;17;17;
57411;PMS5003;43247;52.828;-8.980;2023-06-14T03:52:13;19;17;
57411;PMS5003;43247;52.828;-8.980;2023-06-14T03:53:13;15;15;
57411;PMS5003;43247;52.828;-8.980;2023-06-14T03:54:14;18;18;
57411;PMS5003;43247;52.828;-8.980;2023-06-14T03:55:14;14;14;
57411;PMS5003;43247;52.828;-8.980;2023-06-14T03:56:14;17;17;
57411;PMS5003;43247;52.828;-8.980;2023-06-14T03:57:15;17;17;
57411;PMS5003;43247;52.828;-8.980;2023-06-14T03:58:15;20;20;
57411;PMS5003;43247;52.828;-8.980;2023-06-14T03:59:15;18;18;
57411;PMS5003;43247;52.828;-8.980;2023-06-14T04:00:15;20;18;
57411;PMS5003;43247;52.828;-8.980;2023-06-14T04:01:15;19;17;
57411;PMS5003;43247;52.828;-8.980;2023-06-14T04:02:15;16;16;
57411;PMS5003;43247;52.828;-8.980;2023-06-14T04:03:16;19;19;
57411;PMS5003;43247;52.828;-8.980;2023-06-14T04:04:16;19;19;
57411;PMS5003;43247;52.828;-8.980;2023-06-14T04:05:17;17;17;
57411;PMS5003;43247;52.828;-8.980;2023-06-14T04:06:16;21;20;
57411;PMS5003;43247;52.828;-8.980;2023-06-14T04:07:17;20;20;
57411;PMS5003;43247;52.828;-8.980;2023-06-14T04:08:17;21;21;
57411;PMS5003;43247;52.828;-8.980;2023-06-14T04:09:17;22;22;
57411;PMS5003;43247;52.828;-8.980;2023-06-14T04:10:18;17;17;
57411;PMS5003;43247;52.828;-8.980;2023-06-14T04:11:18;21;21;
57411;PMS5003;43247;52.828;-8.980;2023-06-14T04:12:18;22;22;
57411;PMS5003;43247;52.828;-8.980;2023-06-14T04:13:18;18;18;
57411;PMS5003;43247;52.828;-8.980;2023-06-14T04:14:18;25;24;
57411;PMS5003;43247;52.828;-8.980;2023-06-14T04:15:19;21;21;
57411;PMS5003;43247;52.828;-8.980;2023-06-14T04:16:19;22;22;
57411;PMS5003;43247;52.828;-8.980;2023-06-14T04:17:19;22;22;
57411;PMS5003;43247;52.828;-8.980;2023-06-14T04:18:19;22;21;
57411;PMS5003;43247;52.828;-8.980;2023-06-14T04:19:19;20;18;
57411;PMS5003;43247;52.828;-8.980;2023-06-14T04:20:20;24;22;
57411;PMS5003;43247;52.828;-8.980;2023-06-14T04:21:21;22;19;
57411;PMS5003;43247;52.828;-8.980;2023-06-14T04:22:21;21;20;
57411;PMS5003;43247;52.828;-8.980;2023-06-14T04:23:21;23;20;
57411;PMS5003;43247;52.828;-8.980;2023-06-14T04:24:22;27;25;
57411;PMS5003;43247;52.828;-8.980;2023-06-14T04:25:22;22;22;
57411;PMS5003;43247;52.828;-8.980;2023-06-14T04:26:22;23;21;
57411;PMS5003;43247;52.828;-8.980;2023-06-14T04:27:23;21;21;
57411;PMS5003;43247;52.828;-8.980;2023-06-14T04:28:23;24;23;
57411;PMS5003;43247;52.828;-8.980;2023-06-14T04:29:23;20;18;
57411;PMS5003;43247;52.828;-8.980;2023-06-14T04:30:23;25;21;
57411;PMS5003;43247;52.828;-8.980;2023-06-14T04:31:24;20;20;
57411;PMS5003;43247;52.828;-8.980;2023-06-14T04:32:24;24;22;
57411;PMS5003;43247;52.828;-8.980;2023-06-14T04:33:24;23;21;
57411;PMS5003;43247;52.828;-8.980;2023-06-14T04:34:25;21;21;
57411;PMS5003;43247;52.828;-8.980;2023-06-14T04:35:25;22;21;
57411;PMS5003;43247;52.828;-8.980;2023-06-14T04:36:25;19;19;
57411;PMS5003;43247;52.828;-8.980;2023-06-14T04:37:26;20;20;
57411;PMS5003;43247;52.828;-8.980;2023-06-14T04:38:26;22;21;
57411;PMS5003;43247;52.828;-8.980;2023-06-14T04:39:27;27;25;
57411;PMS5003;43247;52.828;-8.980;2023-06-14T04:40:27;24;21;
57411;PMS5003;43247;52.828;-8.980;2023-06-14T04:41:27;24;23;
57411;PMS5003;43247;52.828;-8.980;2023-06-14T04:42:28;24;24;
57411;PMS5003;43247;52.828;-8.980;2023-06-14T04:43:28;22;21;
57411;PMS5003;43247;52.828;-8.980;2023-06-14T04:44:28;21;21;
57411;PMS5003;43247;52.828;-8.980;2023-06-14T04:45:29;29;27;
57411;PMS5003;43247;52.828;-8.980;2023-06-14T04:46:29;26;23;
57411;PMS5003;43247;52.828;-8.980;2023-06-14T04:47:29;21;21;
57411;PMS5003;43247;52.828;-8.980;2023-06-14T04:48:30;20;20;
57411;PMS5003;43247;52.828;-8.980;2023-06-14T04:49:30;20;19;
57411;PMS5003;43247;52.828;-8.980;2023-06-14T04:50:30;22;19;
57411;PMS5003;43247;52.828;-8.980;2023-06-14T04:51:30;23;23;
57411;PMS5003;43247;52.828;-8.980;2023-06-14T04:52:31;24;21;
57411;PMS5003;43247;52.828;-8.980;2023-06-14T04:53:31;21;21;
57411;PMS5003;43247;52.828;-8.980;2023-06-14T04:54:31;26;24;
57411;PMS5003;43247;52.828;-8.980;2023-06-14T04:55:32;27;27;
57411;PMS5003;43247;52.828;-8.980;2023-06-14T04:56:32;20;20;
57411;PMS5003;43247;52.828;-8.980;2023-06-14T04:57:33;20;20;
57411;PMS5003;43247;52.828;-8.980;2023-06-14T04:58:33;18;18;
57411;PMS5003;43247;52.828;-8.980;2023-06-14T04:59:33;24;23;
57411;PMS5003;43247;52.828;-8.980;2023-06-14T05:00:33;25;24;
57411;PMS5003;43247;52.828;-8.980;2023-06-14T05:01:33;21;18;
57411;PMS5003;43247;52.828;-8.980;2023-06-14T05:02:33;21;21;
57411;PMS5003;43247;52.828;-8.980;2023-06-14T05:03:34;25;24;
57411;PMS5003;43247;52.828;-8.980;2023-06-14T05:04:34;21;20;
57411;PMS5003;43247;52.828;-8.980;2023-06-14T05:05:35;20;20;
57411;PMS5003;43247;52.828;-8.980;2023-06-14T05:06:35;21;21;
57411;PMS5003;43247;52.828;-8.980;2023-06-14T05:07:35;20;20;
57411;PMS5003;43247;52.828;-8.980;2023-06-14T05:08:35;23;21;
57411;PMS5003;43247;52.828;-8.980;2023-06-14T05:09:35;19;19;
57411;PMS5003;43247;52.828;-8.980;2023-06-14T05:10:35;17;17;
57411;PMS5003;43247;52.828;-8.980;2023-06-14T05:11:36;19;19;
57411;PMS5003;43247;52.828;-8.980;2023-06-14T05:12:36;17;17;
57411;PMS5003;43247;52.828;-8.980;2023-06-14T05:13:36;15;15;
57411;PMS5003;43247;52.828;-8.980;2023-06-14T05:14:36;16;16;
57411;PMS5003;43247;52.828;-8.980;2023-06-14T05:15:37;16;16;
57411;PMS5003;43247;52.828;-8.980;2023-06-14T05:16:37;17;16;
57411;PMS5003;43247;52.828;-8.980;2023-06-14T05:17:37;17;16;
57411;PMS5003;43247;52.828;-8.980;2023-06-14T05:18:37;16;16;
57411;PMS5003;43247;52.828;-8.980;2023-06-14T05:19:37;18;16;
57411;PMS5003;43247;52.828;-8.980;2023-06-14T05:20:38;22;20;
57411;PMS5003;43247;52.828;-8.980;2023-06-14T05:21:38;22;22;
57411;PMS5003;43247;52.828;-8.980;2023-06-14T05:22:38;24;22;
57411;PMS5003;43247;52.828;-8.980;2023-06-14T05:23:39;23;23;
57411;PMS5003;43247;52.828;-8.980;2023-06-14T05:24:40;27;25;
57411;PMS5003;43247;52.828;-8.980;2023-06-14T05:25:41;28;27;
57411;PMS5003;43247;52.828;-8.980;2023-06-14T05:26:41;27;26;
57411;PMS5003;43247;52.828;-8.980;2023-06-14T05:27:41;26;23;
57411;PMS5003;43247;52.828;-8.980;2023-06-14T05:28:42;30;30;
57411;PMS5003;43247;52.828;-8.980;2023-06-14T05:29:42;25;24;
57411;PMS5003;43247;52.828;-8.980;2023-06-14T05:30:43;23;22;
57411;PMS5003;43247;52.828;-8.980;2023-06-14T05:31:43;27;26;
57411;PMS5003;43247;52.828;-8.980;2023-06-14T05:32:43;24;24;
57411;PMS5003;43247;52.828;-8.980;2023-06-14T05:33:44;25;24;
57411;PMS5003;43247;52.828;-8.980;2023-06-14T05:34:44;29;28;
57411;PMS5003;43247;52.828;-8.980;2023-06-14T05:35:45;25;24;
57411;PMS5003;43247;52.828;-8.980;2023-06-14T05:36:45;28;26;
57411;PMS5003;43247;52.828;-8.980;2023-06-14T05:37:45;26;26;
57411;PMS5003;43247;52.828;-8.980;2023-06-14T05:38:46;29;29;
57411;PMS5003;43247;52.828;-8.980;2023-06-14T05:39:46;31;30;
57411;PMS5003;43247;52.828;-8.980;2023-06-14T05:40:46;27;26;
57411;PMS5003;43247;52.828;-8.980;2023-06-14T05:41:47;31;30;
57411;PMS5003;43247;52.828;-8.980;2023-06-14T05:42:47;27;24;
57411;PMS5003;43247;52.828;-8.980;2023-06-14T05:43:48;23;23;
57411;PMS5003;43247;52.828;-8.980;2023-06-14T05:44:48;25;25;
57411;PMS5003;43247;52.828;-8.980;2023-06-14T05:45:48;29;28;
57411;PMS5003;43247;52.828;-8.980;2023-06-14T05:46:48;29;28;
57411;PMS5003;43247;52.828;-8.980;2023-06-14T05:47:49;29;29;
57411;PMS5003;43247;52.828;-8.980;2023-06-14T05:48:49;29;27;
57411;PMS5003;43247;52.828;-8.980;2023-06-14T05:49:49;28;28;
57411;PMS5003;43247;52.828;-8.980;2023-06-14T05:50:50;32;31;
57411;PMS5003;43247;52.828;-8.980;2023-06-14T05:51:51;29;29;
57411;PMS5003;43247;52.828;-8.980;2023-06-14T05:52:51;26;25;
57411;PMS5003;43247;52.828;-8.980;2023-06-14T05:53:52;29;27;
57411;PMS5003;43247;52.828;-8.980;2023-06-14T05:54:52;29;29;
57411;PMS5003;43247;52.828;-8.980;2023-06-14T05:55:52;28;28;
57411;PMS5003;43247;52.828;-8.980;2023-06-14T05:56:53;23;22;
57411;PMS5003;43247;52.828;-8.980;2023-06-14T05:57:54;24;24;
57411;PMS5003;43247;52.828;-8.980;2023-06-14T05:58:54;20;20;
57411;PMS5003;43247;52.828;-8.980;2023-06-14T05:59:54;23;23;
57411;PMS5003;43247;52.828;-8.980;2023-06-14T06:00:54;21;21;
57411;PMS5003;43247;52.828;-8.980;2023-06-14T06:01:54;21;21;
57411;PMS5003;43247;52.828;-8.980;2023-06-14T06:02:55;27;25;
57411;PMS5003;43247;52.828;-8.980;2023-06-14T06:03:55;24;22;
57411;PMS5003;43247;52.828;-8.980;2023-06-14T06:04:56;20;20;
57411;PMS5003;43247;52.828;-8.980;2023-06-14T06:05:56;27;26;
57411;PMS5003;43247;52.828;-8.980;2023-06-14T06:06:56;31;29;
57411;PMS5003;43247;52.828;-8.980;2023-06-14T06:07:57;24;24;
57411;PMS5003;43247;52.828;-8.980;2023-06-14T06:08:57;28;27;
57411;PMS5003;43247;52.828;-8.980;2023-06-14T06:09:58;24;23;
57411;PMS5003;43247;52.828;-8.980;2023-06-14T06:10:58;24;23;
57411;PMS5003;43247;52.828;-8.980;2023-06-14T06:11:58;22;22;
57411;PMS5003;43247;52.828;-8.980;2023-06-14T06:12:58;23;22;
57411;PMS5003;43247;52.828;-8.980;2023-06-14T06:13:59;27;25;
57411;PMS5003;43247;52.828;-8.980;2023-06-14T06:14:59;23;23;
57411;PMS5003;43247;52.828;-8.980;2023-06-14T06:15:59;21;21;
57411;PMS5003;43247;52.828;-8.980;2023-06-14T06:16:59;21;20;
57411;PMS5003;43247;52.828;-8.980;2023-06-14T06:18:00;24;24;
57411;PMS5003;43247;52.828;-8.980;2023-06-14T06:19:01;26;24;
57411;PMS5003;43247;52.828;-8.980;2023-06-14T06:20:02;21;21;
57411;PMS5003;43247;52.828;-8.980;2023-06-14T06:21:03;23;22;
57411;PMS5003;43247;52.828;-8.980;2023-06-14T06:22:03;24;24;
57411;PMS5003;43247;52.828;-8.980;2023-06-14T06:23:03;23;22;
57411;PMS5003;43247;52.828;-8.980;2023-06-14T06:24:05;22;22;
57411;PMS5003;43247;52.828;-8.980;2023-06-14T06:25:05;21;21;
57411;PMS5003;43247;52.828;-8.980;2023-06-14T06:26:04;19;19;
57411;PMS5003;43247;52.828;-8.980;2023-06-14T06:27:05;21;21;
57411;PMS5003;43247;52.828;-8.980;2023-06-14T06:28:05;24;24;
57411;PMS5003;43247;52.828;-8.980;2023-06-14T06:29:05;21;21;
57411;PMS5003;43247;52.828;-8.980;2023-06-14T06:30:06;23;23;
57411;PMS5003;43247;52.828;-8.980;2023-06-14T06:31:06;24;23;
57411;PMS5003;43247;52.828;-8.980;2023-06-14T06:32:07;24;24;
57411;PMS5003;43247;52.828;-8.980;2023-06-14T06:33:07;23;23;
57411;PMS5003;43247;52.828;-8.980;2023-06-14T06:34:07;24;23;
57411;PMS5003;43247;52.828;-8.980;2023-06-14T06:35:08;27;27;